sensor_id;sensor_type;location;lat;lon;timestamp;P1;durP1;ratioP1;P2;durP2;ratioP2
21330;SDS011;10824;51.632;4.950;2022-08-20T00:01:10;3.58;;;2.10;;
21330;SDS011;10824;51.632;4.950;2022-08-20T00:03:39;3.90;;;2.38;;
21330;SDS011;10824;51.632;4.950;2022-08-20T00:06:17;3.17;;;2.00;;
21330;SDS011;10824;51.632;4.950;2022-08-20T00:08:46;5.40;;;2.30;;
21330;SDS011;10824;51.632;4.950;2022-08-20T00:11:15;3.28;;;1.88;;
21330;SDS011;10824;51.632;4.950;2022-08-20T00:13:49;3.28;;;2.03;;
21330;SDS011;10824;51.632;4.950;2022-08-20T00:16:21;4.15;;;2.00;;
21330;SDS011;10824;51.632;4.950;2022-08-20T00:18:58;3.97;;;2.25;;
21330;SDS011;10824;51.632;4.950;2022-08-20T00:21:29;3.60;;;2.13;;
21330;SDS011;10824;51.632;4.950;2022-08-20T00:23:58;3.92;;;1.90;;
21330;SDS011;10824;51.632;4.950;2022-08-20T00:26:25;3.25;;;1.92;;
21330;SDS011;10824;51.632;4.950;2022-08-20T00:28:53;5.30;;;2.72;;
21330;SDS011;10824;51.632;4.950;2022-08-20T00:31:21;3.88;;;2.22;;
21330;SDS011;10824;51.632;4.950;2022-08-20T00:33:51;4.22;;;2.47;;
21330;SDS011;10824;51.632;4.950;2022-08-20T00:36:19;4.18;;;2.90;;
21330;SDS011;10824;51.632;4.950;2022-08-20T00:38:57;4.93;;;2.45;;
21330;SDS011;10824;51.632;4.950;2022-08-20T00:41:27;8.23;;;2.80;;
21330;SDS011;10824;51.632;4.950;2022-08-20T00:44:06;4.60;;;3.10;;
21330;SDS011;10824;51.632;4.950;2022-08-20T00:46:39;4.78;;;2.50;;
21330;SDS011;10824;51.632;4.950;2022-08-20T00:49:07;6.68;;;2.88;;
21330;SDS011;10824;51.632;4.950;2022-08-20T00:51:39;4.88;;;2.60;;
21330;SDS011;10824;51.632;4.950;2022-08-20T00:54:22;6.07;;;2.80;;
21330;SDS011;10824;51.632;4.950;2022-08-20T00:57:18;4.10;;;2.10;;
21330;SDS011;10824;51.632;4.950;2022-08-20T00:59:48;5.10;;;2.55;;
21330;SDS011;10824;51.632;4.950;2022-08-20T01:02:16;6.30;;;2.80;;
21330;SDS011;10824;51.632;4.950;2022-08-20T01:04:47;5.40;;;2.77;;
21330;SDS011;10824;51.632;4.950;2022-08-20T01:07:21;4.75;;;2.78;;
21330;SDS011;10824;51.632;4.950;2022-08-20T01:09:58;4.97;;;2.65;;
21330;SDS011;10824;51.632;4.950;2022-08-20T01:12:26;5.43;;;2.88;;
21330;SDS011;10824;51.632;4.950;2022-08-20T01:14:55;4.85;;;2.92;;
21330;SDS011;10824;51.632;4.950;2022-08-20T01:17:26;4.25;;;2.53;;
21330;SDS011;10824;51.632;4.950;2022-08-20T01:20:03;6.45;;;3.13;;
21330;SDS011;10824;51.632;4.950;2022-08-20T01:22:40;5.00;;;2.65;;
21330;SDS011;10824;51.632;4.950;2022-08-20T01:28:15;7.25;;;3.17;;
21330;SDS011;10824;51.632;4.950;2022-08-20T01:30:46;8.02;;;3.92;;
21330;SDS011;10824;51.632;4.950;2022-08-20T01:33:13;8.73;;;2.83;;
21330;SDS011;10824;51.632;4.950;2022-08-20T01:35:44;9.38;;;2.95;;
21330;SDS011;10824;51.632;4.950;2022-08-20T01:38:12;4.78;;;2.88;;
21330;SDS011;10824;51.632;4.950;2022-08-20T01:43:40;6.25;;;3.38;;
21330;SDS011;10824;51.632;4.950;2022-08-20T01:46:08;5.85;;;3.47;;
21330;SDS011;10824;51.632;4.950;2022-08-20T01:48:37;5.97;;;2.88;;
21330;SDS011;10824;51.632;4.950;2022-08-20T01:51:15;4.60;;;2.92;;
21330;SDS011;10824;51.632;4.950;2022-08-20T01:53:46;5.15;;;3.13;;
21330;SDS011;10824;51.632;4.950;2022-08-20T01:56:18;10.05;;;4.22;;
21330;SDS011;10824;51.632;4.950;2022-08-20T01:58:52;7.90;;;3.92;;
21330;SDS011;10824;51.632;4.950;2022-08-20T02:01:34;5.75;;;2.92;;
21330;SDS011;10824;51.632;4.950;2022-08-20T02:04:11;6.20;;;3.00;;
21330;SDS011;10824;51.632;4.950;2022-08-20T02:06:42;9.48;;;3.30;;
21330;SDS011;10824;51.632;4.950;2022-08-20T02:11:58;7.68;;;3.22;;
21330;SDS011;10824;51.632;4.950;2022-08-20T02:14:26;9.73;;;3.53;;
21330;SDS011;10824;51.632;4.950;2022-08-20T02:16:54;8.82;;;3.40;;
21330;SDS011;10824;51.632;4.950;2022-08-20T02:19:34;9.90;;;3.70;;
21330;SDS011;10824;51.632;4.950;2022-08-20T02:22:17;8.95;;;3.20;;
21330;SDS011;10824;51.632;4.950;2022-08-20T02:24:49;8.52;;;3.40;;
21330;SDS011;10824;51.632;4.950;2022-08-20T02:27:16;5.78;;;3.13;;
21330;SDS011;10824;51.632;4.950;2022-08-20T02:29:44;8.73;;;3.33;;
21330;SDS011;10824;51.632;4.950;2022-08-20T02:32:12;12.85;;;3.60;;
21330;SDS011;10824;51.632;4.950;2022-08-20T02:34:59;11.05;;;3.50;;
21330;SDS011;10824;51.632;4.950;2022-08-20T02:37:29;9.18;;;3.50;;
21330;SDS011;10824;51.632;4.950;2022-08-20T02:39:56;10.63;;;3.90;;
21330;SDS011;10824;51.632;4.950;2022-08-20T02:42:24;8.18;;;3.55;;
21330;SDS011;10824;51.632;4.950;2022-08-20T02:44:51;13.02;;;4.43;;
21330;SDS011;10824;51.632;4.950;2022-08-20T02:47:19;8.02;;;3.55;;
21330;SDS011;10824;51.632;4.950;2022-08-20T02:49:46;12.07;;;3.65;;
21330;SDS011;10824;51.632;4.950;2022-08-20T02:52:13;9.27;;;4.03;;
21330;SDS011;10824;51.632;4.950;2022-08-20T02:54:40;12.63;;;4.90;;
21330;SDS011;10824;51.632;4.950;2022-08-20T02:57:11;9.27;;;4.65;;
21330;SDS011;10824;51.632;4.950;2022-08-20T02:59:42;9.07;;;4.65;;
21330;SDS011;10824;51.632;4.950;2022-08-20T03:02:09;11.55;;;4.95;;
21330;SDS011;10824;51.632;4.950;2022-08-20T03:04:37;19.08;;;6.38;;
21330;SDS011;10824;51.632;4.950;2022-08-20T03:07:04;11.65;;;5.75;;
21330;SDS011;10824;51.632;4.950;2022-08-20T03:09:32;12.23;;;6.18;;
21330;SDS011;10824;51.632;4.950;2022-08-20T03:11:59;12.70;;;6.00;;
21330;SDS011;10824;51.632;4.950;2022-08-20T03:14:28;11.75;;;5.68;;
21330;SDS011;10824;51.632;4.950;2022-08-20T03:16:55;16.58;;;5.50;;
21330;SDS011;10824;51.632;4.950;2022-08-20T03:19:22;10.68;;;5.25;;
21330;SDS011;10824;51.632;4.950;2022-08-20T03:21:49;15.32;;;5.82;;
21330;SDS011;10824;51.632;4.950;2022-08-20T03:24:16;14.85;;;5.88;;
21330;SDS011;10824;51.632;4.950;2022-08-20T03:26:43;14.18;;;6.32;;
21330;SDS011;10824;51.632;4.950;2022-08-20T03:29:10;16.60;;;6.30;;
21330;SDS011;10824;51.632;4.950;2022-08-20T03:31:38;12.85;;;5.88;;
21330;SDS011;10824;51.632;4.950;2022-08-20T03:34:05;18.80;;;6.65;;
21330;SDS011;10824;51.632;4.950;2022-08-20T03:36:32;14.18;;;6.40;;
21330;SDS011;10824;51.632;4.950;2022-08-20T03:39:00;14.38;;;6.30;;
21330;SDS011;10824;51.632;4.950;2022-08-20T03:41:30;11.77;;;5.20;;
21330;SDS011;10824;51.632;4.950;2022-08-20T03:43:57;14.18;;;6.07;;
21330;SDS011;10824;51.632;4.950;2022-08-20T03:46:24;18.00;;;6.43;;
21330;SDS011;10824;51.632;4.950;2022-08-20T03:48:52;16.30;;;6.13;;
21330;SDS011;10824;51.632;4.950;2022-08-20T03:51:27;14.85;;;5.85;;
21330;SDS011;10824;51.632;4.950;2022-08-20T03:53:55;16.30;;;5.75;;
21330;SDS011;10824;51.632;4.950;2022-08-20T03:56:22;14.25;;;4.97;;
21330;SDS011;10824;51.632;4.950;2022-08-20T03:58:49;12.82;;;5.70;;
21330;SDS011;10824;51.632;4.950;2022-08-20T04:01:16;9.52;;;5.25;;
21330;SDS011;10824;51.632;4.950;2022-08-20T04:04:04;14.38;;;5.30;;
21330;SDS011;10824;51.632;4.950;2022-08-20T04:06:37;13.52;;;5.95;;
21330;SDS011;10824;51.632;4.950;2022-08-20T04:09:05;14.65;;;5.97;;
21330;SDS011;10824;51.632;4.950;2022-08-20T04:11:37;14.65;;;5.97;;
21330;SDS011;10824;51.632;4.950;2022-08-20T04:14:04;14.38;;;5.50;;
21330;SDS011;10824;51.632;4.950;2022-08-20T04:16:32;15.45;;;6.00;;
21330;SDS011;10824;51.632;4.950;2022-08-20T04:19:00;14.32;;;6.13;;
21330;SDS011;10824;51.632;4.950;2022-08-20T04:21:30;11.27;;;5.38;;
21330;SDS011;10824;51.632;4.950;2022-08-20T04:23:59;14.65;;;5.57;;
21330;SDS011;10824;51.632;4.950;2022-08-20T04:26:30;14.93;;;6.63;;
21330;SDS011;10824;51.632;4.950;2022-08-20T04:28:58;16.05;;;5.47;;
21330;SDS011;10824;51.632;4.950;2022-08-20T04:31:25;13.18;;;5.10;;
21330;SDS011;10824;51.632;4.950;2022-08-20T04:34:00;12.45;;;4.72;;
21330;SDS011;10824;51.632;4.950;2022-08-20T04:36:31;11.25;;;5.43;;
21330;SDS011;10824;51.632;4.950;2022-08-20T04:39:00;9.93;;;4.38;;
21330;SDS011;10824;51.632;4.950;2022-08-20T04:41:29;10.23;;;4.63;;
21330;SDS011;10824;51.632;4.950;2022-08-20T04:43:56;15.48;;;5.15;;
21330;SDS011;10824;51.632;4.950;2022-08-20T04:46:24;11.45;;;4.60;;
21330;SDS011;10824;51.632;4.950;2022-08-20T04:48:55;13.57;;;6.07;;
21330;SDS011;10824;51.632;4.950;2022-08-20T04:51:31;12.23;;;6.25;;
21330;SDS011;10824;51.632;4.950;2022-08-20T04:53:59;12.82;;;5.05;;
21330;SDS011;10824;51.632;4.950;2022-08-20T04:56:47;9.75;;;4.40;;
21330;SDS011;10824;51.632;4.950;2022-08-20T04:59:14;6.95;;;4.20;;
21330;SDS011;10824;51.632;4.950;2022-08-20T05:01:41;9.30;;;4.72;;
21330;SDS011;10824;51.632;4.950;2022-08-20T05:04:08;12.70;;;4.55;;
21330;SDS011;10824;51.632;4.950;2022-08-20T05:06:36;9.75;;;4.38;;
21330;SDS011;10824;51.632;4.950;2022-08-20T05:09:03;10.38;;;4.50;;
21330;SDS011;10824;51.632;4.950;2022-08-20T05:11:30;12.43;;;4.07;;
21330;SDS011;10824;51.632;4.950;2022-08-20T05:14:03;11.85;;;4.03;;
21330;SDS011;10824;51.632;4.950;2022-08-20T05:16:33;13.35;;;5.55;;
21330;SDS011;10824;51.632;4.950;2022-08-20T05:19:04;9.23;;;3.95;;
21330;SDS011;10824;51.632;4.950;2022-08-20T05:21:34;11.45;;;4.72;;
21330;SDS011;10824;51.632;4.950;2022-08-20T05:24:01;9.02;;;3.85;;
21330;SDS011;10824;51.632;4.950;2022-08-20T05:26:30;15.82;;;6.40;;
21330;SDS011;10824;51.632;4.950;2022-08-20T05:29:00;9.90;;;3.60;;
21330;SDS011;10824;51.632;4.950;2022-08-20T05:34:06;7.07;;;3.80;;
21330;SDS011;10824;51.632;4.950;2022-08-20T05:36:37;8.30;;;3.90;;
21330;SDS011;10824;51.632;4.950;2022-08-20T05:39:12;8.63;;;4.32;;
21330;SDS011;10824;51.632;4.950;2022-08-20T05:41:40;9.63;;;4.20;;
21330;SDS011;10824;51.632;4.950;2022-08-20T05:44:08;11.45;;;5.00;;
21330;SDS011;10824;51.632;4.950;2022-08-20T05:46:39;10.60;;;4.63;;
21330;SDS011;10824;51.632;4.950;2022-08-20T05:49:08;6.32;;;3.63;;
21330;SDS011;10824;51.632;4.950;2022-08-20T05:51:38;10.38;;;4.57;;
21330;SDS011;10824;51.632;4.950;2022-08-20T05:54:05;8.00;;;3.67;;
21330;SDS011;10824;51.632;4.950;2022-08-20T05:56:33;9.77;;;3.92;;
21330;SDS011;10824;51.632;4.950;2022-08-20T05:59:01;6.72;;;3.35;;
21330;SDS011;10824;51.632;4.950;2022-08-20T06:01:31;9.85;;;4.10;;
21330;SDS011;10824;51.632;4.950;2022-08-20T06:04:00;8.48;;;3.67;;
21330;SDS011;10824;51.632;4.950;2022-08-20T06:06:46;12.50;;;3.55;;
21330;SDS011;10824;51.632;4.950;2022-08-20T06:09:15;7.20;;;3.53;;
21330;SDS011;10824;51.632;4.950;2022-08-20T06:11:56;7.50;;;3.45;;
21330;SDS011;10824;51.632;4.950;2022-08-20T06:14:24;8.13;;;4.63;;
21330;SDS011;10824;51.632;4.950;2022-08-20T06:16:52;9.93;;;4.13;;
21330;SDS011;10824;51.632;4.950;2022-08-20T06:19:25;7.38;;;3.90;;
21330;SDS011;10824;51.632;4.950;2022-08-20T06:21:57;6.78;;;3.45;;
21330;SDS011;10824;51.632;4.950;2022-08-20T06:24:25;7.75;;;3.70;;
21330;SDS011;10824;51.632;4.950;2022-08-20T06:26:56;7.00;;;3.38;;
21330;SDS011;10824;51.632;4.950;2022-08-20T06:29:26;7.63;;;3.47;;
21330;SDS011;10824;51.632;4.950;2022-08-20T06:31:54;15.15;;;3.97;;
21330;SDS011;10824;51.632;4.950;2022-08-20T06:34:21;13.30;;;4.38;;
21330;SDS011;10824;51.632;4.950;2022-08-20T06:36:51;9.88;;;4.32;;
21330;SDS011;10824;51.632;4.950;2022-08-20T06:39:18;11.02;;;3.92;;
21330;SDS011;10824;51.632;4.950;2022-08-20T06:41:46;6.90;;;2.92;;
21330;SDS011;10824;51.632;4.950;2022-08-20T06:44:13;5.53;;;2.53;;
21330;SDS011;10824;51.632;4.950;2022-08-20T06:46:40;4.95;;;2.60;;
21330;SDS011;10824;51.632;4.950;2022-08-20T06:49:08;5.90;;;2.78;;
21330;SDS011;10824;51.632;4.950;2022-08-20T06:51:35;8.93;;;3.00;;
21330;SDS011;10824;51.632;4.950;2022-08-20T06:54:05;5.47;;;2.45;;
21330;SDS011;10824;51.632;4.950;2022-08-20T06:56:32;7.28;;;2.95;;
21330;SDS011;10824;51.632;4.950;2022-08-20T06:59:00;6.65;;;3.40;;
21330;SDS011;10824;51.632;4.950;2022-08-20T07:01:28;11.02;;;3.10;;
21330;SDS011;10824;51.632;4.950;2022-08-20T07:03:55;4.05;;;2.58;;
21330;SDS011;10824;51.632;4.950;2022-08-20T07:06:25;7.32;;;2.42;;
21330;SDS011;10824;51.632;4.950;2022-08-20T07:08:53;9.20;;;2.50;;
21330;SDS011;10824;51.632;4.950;2022-08-20T07:11:21;6.68;;;2.72;;
21330;SDS011;10824;51.632;4.950;2022-08-20T07:13:55;8.18;;;2.75;;
21330;SDS011;10824;51.632;4.950;2022-08-20T07:16:23;6.45;;;2.78;;
21330;SDS011;10824;51.632;4.950;2022-08-20T07:18:50;6.22;;;2.28;;
21330;SDS011;10824;51.632;4.950;2022-08-20T07:21:18;5.82;;;2.40;;
21330;SDS011;10824;51.632;4.950;2022-08-20T07:23:45;6.10;;;2.33;;
21330;SDS011;10824;51.632;4.950;2022-08-20T07:26:15;7.68;;;2.40;;
21330;SDS011;10824;51.632;4.950;2022-08-20T07:28:42;6.40;;;1.77;;
21330;SDS011;10824;51.632;4.950;2022-08-20T07:31:09;3.85;;;1.92;;
21330;SDS011;10824;51.632;4.950;2022-08-20T07:33:57;3.83;;;1.60;;
21330;SDS011;10824;51.632;4.950;2022-08-20T07:36:25;6.68;;;2.00;;
21330;SDS011;10824;51.632;4.950;2022-08-20T07:38:53;4.43;;;1.98;;
21330;SDS011;10824;51.632;4.950;2022-08-20T07:41:22;3.00;;;1.30;;
21330;SDS011;10824;51.632;4.950;2022-08-20T07:43:49;5.95;;;2.00;;
21330;SDS011;10824;51.632;4.950;2022-08-20T07:46:17;3.85;;;1.70;;
21330;SDS011;10824;51.632;4.950;2022-08-20T07:48:46;4.18;;;1.88;;
21330;SDS011;10824;51.632;4.950;2022-08-20T07:51:19;6.18;;;2.75;;
21330;SDS011;10824;51.632;4.950;2022-08-20T07:53:48;6.00;;;2.08;;
21330;SDS011;10824;51.632;4.950;2022-08-20T07:56:20;4.22;;;2.47;;
21330;SDS011;10824;51.632;4.950;2022-08-20T07:58:51;6.60;;;2.50;;
21330;SDS011;10824;51.632;4.950;2022-08-20T08:01:25;3.78;;;2.30;;
21330;SDS011;10824;51.632;4.950;2022-08-20T08:03:56;8.38;;;2.22;;
21330;SDS011;10824;51.632;4.950;2022-08-20T08:06:24;4.38;;;2.17;;
21330;SDS011;10824;51.632;4.950;2022-08-20T08:09:07;3.17;;;1.75;;
21330;SDS011;10824;51.632;4.950;2022-08-20T08:11:37;3.40;;;1.67;;
21330;SDS011;10824;51.632;4.950;2022-08-20T08:14:12;7.20;;;1.92;;
21330;SDS011;10824;51.632;4.950;2022-08-20T08:16:41;5.30;;;2.90;;
21330;SDS011;10824;51.632;4.950;2022-08-20T08:19:11;2.65;;;1.60;;
21330;SDS011;10824;51.632;4.950;2022-08-20T08:24:10;4.97;;;2.05;;
21330;SDS011;10824;51.632;4.950;2022-08-20T08:26:45;5.97;;;1.52;;
21330;SDS011;10824;51.632;4.950;2022-08-20T08:29:15;4.65;;;1.60;;
21330;SDS011;10824;51.632;4.950;2022-08-20T08:31:42;4.10;;;2.10;;
21330;SDS011;10824;51.632;4.950;2022-08-20T08:34:09;4.55;;;1.92;;
21330;SDS011;10824;51.632;4.950;2022-08-20T08:36:36;4.43;;;2.55;;
21330;SDS011;10824;51.632;4.950;2022-08-20T08:39:04;2.92;;;1.40;;
21330;SDS011;10824;51.632;4.950;2022-08-20T08:41:34;4.63;;;1.67;;
21330;SDS011;10824;51.632;4.950;2022-08-20T08:44:14;7.97;;;2.37;;
21330;SDS011;10824;51.632;4.950;2022-08-20T08:46:49;5.63;;;2.08;;
21330;SDS011;10824;51.632;4.950;2022-08-20T08:49:22;4.35;;;1.88;;
21330;SDS011;10824;51.632;4.950;2022-08-20T08:52:04;4.07;;;1.50;;
21330;SDS011;10824;51.632;4.950;2022-08-20T08:54:38;3.80;;;1.65;;
21330;SDS011;10824;51.632;4.950;2022-08-20T08:57:12;3.60;;;1.63;;
21330;SDS011;10824;51.632;4.950;2022-08-20T08:59:44;3.25;;;1.63;;
21330;SDS011;10824;51.632;4.950;2022-08-20T09:02:31;4.00;;;1.33;;
21330;SDS011;10824;51.632;4.950;2022-08-20T09:04:59;4.50;;;1.55;;
21330;SDS011;10824;51.632;4.950;2022-08-20T09:07:30;6.45;;;2.28;;
21330;SDS011;10824;51.632;4.950;2022-08-20T09:09:59;3.55;;;1.10;;
21330;SDS011;10824;51.632;4.950;2022-08-20T09:12:27;4.93;;;1.20;;
21330;SDS011;10824;51.632;4.950;2022-08-20T09:14:54;2.70;;;1.10;;
21330;SDS011;10824;51.632;4.950;2022-08-20T09:17:22;5.55;;;1.50;;
21330;SDS011;10824;51.632;4.950;2022-08-20T09:19:50;6.65;;;1.63;;
21330;SDS011;10824;51.632;4.950;2022-08-20T09:22:22;6.28;;;1.25;;
21330;SDS011;10824;51.632;4.950;2022-08-20T09:24:52;3.78;;;1.42;;
21330;SDS011;10824;51.632;4.950;2022-08-20T09:27:19;4.30;;;1.23;;
21330;SDS011;10824;51.632;4.950;2022-08-20T09:29:47;8.02;;;1.73;;
21330;SDS011;10824;51.632;4.950;2022-08-20T09:32:21;4.43;;;1.00;;
21330;SDS011;10824;51.632;4.950;2022-08-20T09:34:52;5.30;;;1.02;;
21330;SDS011;10824;51.632;4.950;2022-08-20T09:37:25;3.95;;;1.45;;
21330;SDS011;10824;51.632;4.950;2022-08-20T09:40:00;5.20;;;0.90;;
21330;SDS011;10824;51.632;4.950;2022-08-20T09:42:30;6.45;;;1.17;;
21330;SDS011;10824;51.632;4.950;2022-08-20T09:45:05;4.00;;;0.95;;
21330;SDS011;10824;51.632;4.950;2022-08-20T09:47:36;4.63;;;1.05;;
21330;SDS011;10824;51.632;4.950;2022-08-20T09:50:20;3.65;;;0.90;;
21330;SDS011;10824;51.632;4.950;2022-08-20T09:52:49;2.10;;;1.17;;
21330;SDS011;10824;51.632;4.950;2022-08-20T09:55:20;4.45;;;1.00;;
21330;SDS011;10824;51.632;4.950;2022-08-20T09:57:48;4.65;;;1.15;;
21330;SDS011;10824;51.632;4.950;2022-08-20T10:00:16;3.88;;;1.35;;
21330;SDS011;10824;51.632;4.950;2022-08-20T10:02:44;1.65;;;0.80;;
21330;SDS011;10824;51.632;4.950;2022-08-20T10:05:11;4.55;;;1.05;;
21330;SDS011;10824;51.632;4.950;2022-08-20T10:07:39;6.55;;;1.17;;
21330;SDS011;10824;51.632;4.950;2022-08-20T10:10:07;2.88;;;1.00;;
21330;SDS011;10824;51.632;4.950;2022-08-20T10:12:36;6.22;;;1.60;;
21330;SDS011;10824;51.632;4.950;2022-08-20T10:15:03;2.03;;;1.10;;
21330;SDS011;10824;51.632;4.950;2022-08-20T10:17:31;5.35;;;0.95;;
21330;SDS011;10824;51.632;4.950;2022-08-20T10:19:58;3.67;;;0.80;;
21330;SDS011;10824;51.632;4.950;2022-08-20T10:22:25;14.23;;;2.10;;
21330;SDS011;10824;51.632;4.950;2022-08-20T10:24:52;3.88;;;1.10;;
21330;SDS011;10824;51.632;4.950;2022-08-20T10:27:19;7.85;;;1.20;;
21330;SDS011;10824;51.632;4.950;2022-08-20T10:29:47;4.93;;;0.80;;
21330;SDS011;10824;51.632;4.950;2022-08-20T10:32:16;4.95;;;1.20;;
21330;SDS011;10824;51.632;4.950;2022-08-20T10:34:47;2.92;;;1.20;;
21330;SDS011;10824;51.632;4.950;2022-08-20T10:37:19;2.58;;;0.82;;
21330;SDS011;10824;51.632;4.950;2022-08-20T10:39:48;3.08;;;1.00;;
21330;SDS011;10824;51.632;4.950;2022-08-20T10:42:15;5.20;;;1.45;;
21330;SDS011;10824;51.632;4.950;2022-08-20T10:44:42;5.10;;;1.05;;
21330;SDS011;10824;51.632;4.950;2022-08-20T10:47:25;4.22;;;1.08;;
21330;SDS011;10824;51.632;4.950;2022-08-20T10:49:55;11.45;;;1.50;;
21330;SDS011;10824;51.632;4.950;2022-08-20T10:52:23;5.72;;;1.45;;
21330;SDS011;10824;51.632;4.950;2022-08-20T10:54:51;3.83;;;1.58;;
21330;SDS011;10824;51.632;4.950;2022-08-20T10:57:23;5.13;;;1.00;;
21330;SDS011;10824;51.632;4.950;2022-08-20T10:59:53;4.60;;;1.00;;
21330;SDS011;10824;51.632;4.950;2022-08-20T11:02:22;6.40;;;0.88;;
21330;SDS011;10824;51.632;4.950;2022-08-20T11:04:50;1.77;;;1.02;;
21330;SDS011;10824;51.632;4.950;2022-08-20T11:07:29;3.80;;;0.70;;
21330;SDS011;10824;51.632;4.950;2022-08-20T11:10:23;2.28;;;0.90;;
21330;SDS011;10824;51.632;4.950;2022-08-20T11:12:53;1.95;;;0.82;;
21330;SDS011;10824;51.632;4.950;2022-08-20T11:15:20;3.88;;;0.85;;
21330;SDS011;10824;51.632;4.950;2022-08-20T11:17:48;2.92;;;0.88;;
21330;SDS011;10824;51.632;4.950;2022-08-20T11:20:17;4.85;;;0.80;;
21330;SDS011;10824;51.632;4.950;2022-08-20T11:22:45;4.50;;;0.90;;
21330;SDS011;10824;51.632;4.950;2022-08-20T11:25:12;2.80;;;0.85;;
21330;SDS011;10824;51.632;4.950;2022-08-20T11:27:41;7.53;;;1.63;;
21330;SDS011;10824;51.632;4.950;2022-08-20T11:30:14;3.47;;;1.17;;
21330;SDS011;10824;51.632;4.950;2022-08-20T11:32:53;8.57;;;1.83;;
21330;SDS011;10824;51.632;4.950;2022-08-20T11:35:21;3.00;;;1.10;;
21330;SDS011;10824;51.632;4.950;2022-08-20T11:38:11;3.55;;;0.85;;
21330;SDS011;10824;51.632;4.950;2022-08-20T11:40:38;1.73;;;0.68;;
21330;SDS011;10824;51.632;4.950;2022-08-20T11:43:06;1.67;;;0.70;;
21330;SDS011;10824;51.632;4.950;2022-08-20T11:45:46;5.20;;;1.00;;
21330;SDS011;10824;51.632;4.950;2022-08-20T11:48:16;5.95;;;1.60;;
21330;SDS011;10824;51.632;4.950;2022-08-20T11:50:43;7.28;;;1.67;;
21330;SDS011;10824;51.632;4.950;2022-08-20T11:53:13;4.75;;;1.30;;
21330;SDS011;10824;51.632;4.950;2022-08-20T11:55:41;4.35;;;1.20;;
21330;SDS011;10824;51.632;4.950;2022-08-20T11:58:09;4.32;;;0.93;;
21330;SDS011;10824;51.632;4.950;2022-08-20T12:00:36;2.72;;;0.80;;
21330;SDS011;10824;51.632;4.950;2022-08-20T12:03:07;4.63;;;0.82;;
21330;SDS011;10824;51.632;4.950;2022-08-20T12:05:37;3.28;;;0.93;;
21330;SDS011;10824;51.632;4.950;2022-08-20T12:08:05;3.90;;;0.88;;
21330;SDS011;10824;51.632;4.950;2022-08-20T12:10:34;3.45;;;0.85;;
21330;SDS011;10824;51.632;4.950;2022-08-20T12:13:02;4.38;;;1.30;;
21330;SDS011;10824;51.632;4.950;2022-08-20T12:15:30;3.65;;;1.30;;
21330;SDS011;10824;51.632;4.950;2022-08-20T12:18:04;4.03;;;1.50;;
21330;SDS011;10824;51.632;4.950;2022-08-20T12:20:33;6.72;;;1.38;;
21330;SDS011;10824;51.632;4.950;2022-08-20T12:23:00;4.93;;;0.90;;
21330;SDS011;10824;51.632;4.950;2022-08-20T12:25:28;4.07;;;1.00;;
21330;SDS011;10824;51.632;4.950;2022-08-20T12:27:55;7.53;;;1.27;;
21330;SDS011;10824;51.632;4.950;2022-08-20T12:30:24;5.43;;;1.00;;
21330;SDS011;10824;51.632;4.950;2022-08-20T12:32:53;4.10;;;1.30;;
21330;SDS011;10824;51.632;4.950;2022-08-20T12:35:21;5.63;;;1.10;;
21330;SDS011;10824;51.632;4.950;2022-08-20T12:37:48;4.72;;;1.35;;
21330;SDS011;10824;51.632;4.950;2022-08-20T12:40:21;8.00;;;1.77;;
21330;SDS011;10824;51.632;4.950;2022-08-20T12:42:58;2.50;;;1.10;;
21330;SDS011;10824;51.632;4.950;2022-08-20T12:45:27;5.93;;;1.20;;
21330;SDS011;10824;51.632;4.950;2022-08-20T12:48:00;2.10;;;1.02;;
21330;SDS011;10824;51.632;4.950;2022-08-20T12:50:32;5.72;;;1.20;;
21330;SDS011;10824;51.632;4.950;2022-08-20T12:53:01;6.25;;;1.30;;
21330;SDS011;10824;51.632;4.950;2022-08-20T12:55:29;1.20;;;0.82;;
21330;SDS011;10824;51.632;4.950;2022-08-20T12:57:59;3.85;;;1.10;;
21330;SDS011;10824;51.632;4.950;2022-08-20T13:00:40;3.03;;;0.75;;
21330;SDS011;10824;51.632;4.950;2022-08-20T13:03:15;7.25;;;1.05;;
21330;SDS011;10824;51.632;4.950;2022-08-20T13:05:45;6.72;;;1.30;;
21330;SDS011;10824;51.632;4.950;2022-08-20T13:08:14;5.63;;;0.85;;
21330;SDS011;10824;51.632;4.950;2022-08-20T13:10:43;4.10;;;1.17;;
21330;SDS011;10824;51.632;4.950;2022-08-20T13:13:11;4.65;;;1.15;;
21330;SDS011;10824;51.632;4.950;2022-08-20T13:18:09;2.85;;;1.15;;
21330;SDS011;10824;51.632;4.950;2022-08-20T13:20:36;4.60;;;1.23;;
21330;SDS011;10824;51.632;4.950;2022-08-20T13:23:03;3.05;;;0.70;;
21330;SDS011;10824;51.632;4.950;2022-08-20T13:25:31;1.75;;;0.93;;
21330;SDS011;10824;51.632;4.950;2022-08-20T13:28:00;5.00;;;1.17;;
21330;SDS011;10824;51.632;4.950;2022-08-20T13:30:30;2.60;;;1.08;;
21330;SDS011;10824;51.632;4.950;2022-08-20T13:32:59;3.92;;;1.00;;
21330;SDS011;10824;51.632;4.950;2022-08-20T13:35:26;4.35;;;0.75;;
21330;SDS011;10824;51.632;4.950;2022-08-20T13:37:53;4.00;;;0.98;;
21330;SDS011;10824;51.632;4.950;2022-08-20T13:40:20;4.13;;;1.25;;
21330;SDS011;10824;51.632;4.950;2022-08-20T13:42:49;3.63;;;0.90;;
21330;SDS011;10824;51.632;4.950;2022-08-20T13:45:16;5.20;;;1.38;;
21330;SDS011;10824;51.632;4.950;2022-08-20T13:47:43;5.03;;;0.93;;
21330;SDS011;10824;51.632;4.950;2022-08-20T13:50:14;6.28;;;1.35;;
21330;SDS011;10824;51.632;4.950;2022-08-20T13:52:44;2.03;;;0.82;;
21330;SDS011;10824;51.632;4.950;2022-08-20T13:55:13;4.85;;;0.80;;
21330;SDS011;10824;51.632;4.950;2022-08-20T13:57:44;2.05;;;0.80;;
21330;SDS011;10824;51.632;4.950;2022-08-20T14:00:14;3.08;;;0.77;;
21330;SDS011;10824;51.632;4.950;2022-08-20T14:02:43;3.38;;;0.90;;
21330;SDS011;10824;51.632;4.950;2022-08-20T14:05:11;3.38;;;1.15;;
21330;SDS011;10824;51.632;4.950;2022-08-20T14:07:44;3.50;;;1.15;;
21330;SDS011;10824;51.632;4.950;2022-08-20T14:10:16;2.65;;;0.93;;
21330;SDS011;10824;51.632;4.950;2022-08-20T14:12:50;5.75;;;1.10;;
21330;SDS011;10824;51.632;4.950;2022-08-20T14:15:18;1.88;;;0.90;;
21330;SDS011;10824;51.632;4.950;2022-08-20T14:17:49;9.13;;;1.23;;
21330;SDS011;10824;51.632;4.950;2022-08-20T14:20:19;3.55;;;1.05;;
21330;SDS011;10824;51.632;4.950;2022-08-20T14:22:49;3.42;;;1.27;;
21330;SDS011;10824;51.632;4.950;2022-08-20T14:25:17;4.68;;;1.33;;
21330;SDS011;10824;51.632;4.950;2022-08-20T14:27:46;9.95;;;0.88;;
21330;SDS011;10824;51.632;4.950;2022-08-20T14:30:16;3.15;;;1.17;;
21330;SDS011;10824;51.632;4.950;2022-08-20T14:32:44;4.23;;;0.93;;
21330;SDS011;10824;51.632;4.950;2022-08-20T14:35:12;2.42;;;1.05;;
21330;SDS011;10824;51.632;4.950;2022-08-20T14:37:40;1.48;;;0.77;;
21330;SDS011;10824;51.632;4.950;2022-08-20T14:40:14;4.85;;;0.80;;
21330;SDS011;10824;51.632;4.950;2022-08-20T14:42:42;3.17;;;0.93;;
21330;SDS011;10824;51.632;4.950;2022-08-20T14:45:16;5.40;;;1.42;;
21330;SDS011;10824;51.632;4.950;2022-08-20T14:47:46;3.38;;;0.82;;
21330;SDS011;10824;51.632;4.950;2022-08-20T14:50:23;4.80;;;0.98;;
21330;SDS011;10824;51.632;4.950;2022-08-20T14:52:57;4.40;;;0.93;;
21330;SDS011;10824;51.632;4.950;2022-08-20T14:55:27;5.13;;;0.90;;
21330;SDS011;10824;51.632;4.950;2022-08-20T14:57:56;5.47;;;1.00;;
21330;SDS011;10824;51.632;4.950;2022-08-20T15:00:25;6.30;;;0.98;;
21330;SDS011;10824;51.632;4.950;2022-08-20T15:03:02;5.35;;;1.00;;
21330;SDS011;10824;51.632;4.950;2022-08-20T15:05:29;3.25;;;0.93;;
21330;SDS011;10824;51.632;4.950;2022-08-20T15:07:56;5.30;;;1.20;;
21330;SDS011;10824;51.632;4.950;2022-08-20T15:10:26;3.40;;;1.30;;
21330;SDS011;10824;51.632;4.950;2022-08-20T15:12:56;1.45;;;0.65;;
21330;SDS011;10824;51.632;4.950;2022-08-20T15:15:24;2.60;;;0.80;;
21330;SDS011;10824;51.632;4.950;2022-08-20T15:17:53;1.42;;;0.55;;
21330;SDS011;10824;51.632;4.950;2022-08-20T15:20:24;8.50;;;1.10;;